LGKLLGKR

Guest
Details From LGKL - KALAMATA
To LGKR - IOANNIS KAPODISTRIAS INTL
Flight Number -
Tags generated
Created
Modified
Stats Distance 183 nm / 339 km
Max Altitude 24,400 ft / 7,437 m
Waypoints 4
Social Downloads 2
Likes 0
Share

Download

Looking for another format? Having issues loading an existing format? Contact us
Advertisement - Login to hide

Notes

Basic altitude profile: - Ascent Rate: 2500ft/min - Ascent Speed: 250kts - Cruise Altitude: 35000ft - Cruise Speed: 420kts - Descent Rate: 1500ft/min - Descent Speed: 250kts Options: - Use NATs: yes - Use PACOTS: yes - Use low airways: yes - Use high airways: yes

Route

LGKL ARA A14 KRK LGKR

ID Type Via Altitude (ft/m) Position (lat/lon) Dist (leg/tot) Name
O LGKL APT - 0 / 0 37.06832 / 22.02552 - / 0 nm KALAMATA
ARA VOR - 24,400 / 7,437 38.10972 / 21.42528 68 / 68 nm ARAXOS VOR-DME
KRK VOR A14 (AWY-LO) 6,500 / 1,981 39.44389 / 20.07278 102 / 170 nm KERKIRA VOR-DME
O LGKR APT - 0 / 0 39.60178 / 19.91191 12 / 182 nm IOANNIS KAPODISTRIAS INTL

Altitude Profile

Advertisement - Login to hide

Weather


0- 5 10 15 20 25 30 35+ Temperature / °C

Clouds and Precipitation
Forecast for 2020-10-20 00:00 UTC. Updated an hour ago

Ground ~20,000 ft ~40,000 ft Winds

LGKL

Details ICAO LGKL (KLX)
Name Kalamata Intl. Airport
Region Greece
Timezone Europe/Athens (UTC+3.0)
Stats Elevation 25 ft / 8 m (AMSL)
Location 37.068600° 22.025400°
Runways 1
Magnetic Variation 4.437° E

METAR

LGKL 192220Z 00000KT 9999 FEW025 SCT080 15/14 Q1020

Decode

TAF

Not found

Departure Runways

ID Width Length Bearing (true/mag) Surface Threshold Overrun Markings Lighting
17R 148 ft / 45 m 8,877 ft / 2,706 m 169.45° / 165.02° ASPHALT 0 ft / 0 m 574 ft / 175 m APP EDGE THRESHOLD REIL-OMNI
35L 148 ft / 45 m 8,877 ft / 2,706 m 349.46° / 345.02° ASPHALT 0 ft / 0 m 577 ft / 176 m APP EDGE THRESHOLD CALVERT REIL-OMNI

LGKR

Details ICAO LGKR (CFU)
Name IOANNIS KAPODISTRIAS INTL
Region Greece
Timezone Europe/Athens (UTC+3.0)
Stats Elevation 0 ft / 0 m (AMSL)
Location 39.602300° 19.912000°
Runways 1
Magnetic Variation 4.382° E

METAR

LGKR 192220Z 00000KT CAVOK 13/11 Q1021 NOSIG

Decode

TAF

TAF LGKR 191700Z 1918/2018 VRB05KT 9999 FEW020

Decode

Destination Runways

ID Width Length Bearing (true/mag) Surface Threshold Overrun Markings Lighting
17 148 ft / 45 m 7,604 ft / 2,318 m 168.78° / 164.40° ASPHALT 1,342 ft / 409 m 0 ft / 0 m PREC-APP EDGE THRESHOLD ALSF-I
35 148 ft / 45 m 7,604 ft / 2,318 m 348.79° / 344.40° ASPHALT 0 ft / 0 m 0 ft / 0 m PREC-APP EDGE THRESHOLD SALS REIL-OMNI

Popular Alternatives